createdAt,value
2022-11-13T00:00:05.859Z,67.80
2022-11-13T00:02:35.335Z,68.50
2022-11-13T00:05:02.586Z,68.90
2022-11-13T00:07:29.287Z,68.90
2022-11-13T00:09:55.988Z,69.40
2022-11-13T00:12:22.637Z,70.70
2022-11-13T00:14:49.330Z,70.60
2022-11-13T00:17:15.992Z,69.20
2022-11-13T00:19:42.655Z,69.70
2022-11-13T00:22:09.311Z,71.00
2022-11-13T00:24:36.225Z,70.20
2022-11-13T00:27:02.907Z,70.70
2022-11-13T00:29:29.566Z,69.00
2022-11-13T00:31:56.221Z,69.20
2022-11-13T00:37:09.553Z,69.50
2022-11-13T00:39:36.176Z,70.00
2022-11-13T00:42:02.760Z,68.60
2022-11-13T00:44:29.414Z,68.30
2022-11-13T00:46:56.037Z,69.60
2022-11-13T00:49:22.673Z,70.80
2022-11-13T00:51:49.335Z,71.10
2022-11-13T00:54:16.088Z,70.30
2022-11-13T00:56:42.738Z,70.00
2022-11-13T00:59:09.397Z,70.90
2022-11-13T01:01:36.078Z,70.60
2022-11-13T01:04:02.751Z,72.20
2022-11-13T01:06:29.427Z,71.80
2022-11-13T01:08:57.221Z,72.70
2022-11-13T01:11:26.677Z,73.10
2022-11-13T01:13:53.978Z,72.00
2022-11-13T01:16:23.201Z,71.90
2022-11-13T01:18:53.873Z,71.10
2022-11-13T01:21:26.295Z,71.60
2022-11-13T01:23:54.562Z,72.70
2022-11-13T01:26:24.178Z,73.20
2022-11-13T01:28:50.906Z,71.50
2022-11-13T01:31:21.114Z,72.30
2022-11-13T01:33:48.788Z,71.80
2022-11-13T01:36:26.664Z,72.50
2022-11-13T01:38:53.831Z,71.70
2022-11-13T01:41:26.685Z,72.10
2022-11-13T01:43:55.258Z,71.30
2022-11-13T01:46:27.863Z,70.90
2022-11-13T01:48:54.604Z,71.60
2022-11-13T01:51:48.172Z,71.40
2022-11-13T01:54:21.778Z,70.60
2022-11-13T01:56:48.951Z,70.90
2022-11-13T01:59:18.929Z,70.10
2022-11-13T02:01:45.654Z,71.60
2022-11-13T02:04:12.652Z,72.10
2022-11-13T02:06:49.513Z,71.50
2022-11-13T02:09:18.570Z,71.60
2022-11-13T02:11:45.335Z,72.60
2022-11-13T02:14:12.892Z,71.60
2022-11-13T02:16:40.491Z,71.90
2022-11-13T02:19:13.326Z,71.60
2022-11-13T02:22:18.480Z,72.10
2022-11-13T02:24:48.733Z,72.70
2022-11-13T02:27:33.476Z,73.80
2022-11-13T02:30:15.905Z,73.70
2022-11-13T02:32:47.950Z,72.70
2022-11-13T02:35:17.628Z,72.30
2022-11-13T02:37:44.513Z,72.90
2022-11-13T02:40:11.918Z,71.70
2022-11-13T02:42:38.558Z,72.30
2022-11-13T02:45:06.431Z,72.00
2022-11-13T02:47:33.625Z,72.90
2022-11-13T02:50:00.289Z,70.90
2022-11-13T02:52:27.381Z,72.10
2022-11-13T02:54:54.071Z,70.70
2022-11-13T02:57:20.715Z,72.10
2022-11-13T02:59:47.488Z,71.70
2022-11-13T03:02:14.122Z,70.90
2022-11-13T03:05:10.344Z,71.20
2022-11-13T03:07:27.846Z,71.00
2022-11-13T03:09:54.911Z,71.70
2022-11-13T03:12:21.669Z,70.30
2022-11-13T03:14:48.374Z,70.10
2022-11-13T03:17:15.000Z,70.10
2022-11-13T03:19:41.633Z,69.50
2022-11-13T03:22:08.295Z,70.90
2022-11-13T03:24:34.983Z,70.00
2022-11-13T03:27:02.238Z,71.20
2022-11-13T03:29:28.902Z,70.50
2022-11-13T03:31:55.533Z,70.50
2022-11-13T03:34:22.254Z,69.80
2022-11-13T03:36:48.873Z,70.00
2022-11-13T03:39:15.564Z,69.40
2022-11-13T03:41:42.203Z,68.80
2022-11-13T03:44:08.992Z,68.60
2022-11-13T03:46:35.644Z,68.80
2022-11-13T03:49:02.380Z,69.10
2022-11-13T03:51:29.015Z,68.80
2022-11-13T03:53:55.642Z,67.70
2022-11-13T03:56:22.307Z,67.90
2022-11-13T03:58:49.836Z,69.00
2022-11-13T04:01:16.758Z,69.20
2022-11-13T04:03:43.430Z,69.20
2022-11-13T04:06:10.087Z,69.50
2022-11-13T04:08:36.862Z,70.00
2022-11-13T04:11:12.354Z,67.90
2022-11-13T04:13:39.273Z,69.40
2022-11-13T04:16:06.440Z,70.00
2022-11-13T04:18:33.573Z,69.40
2022-11-13T04:21:02.111Z,69.20
2022-11-13T04:23:28.823Z,69.20
2022-11-13T04:25:55.466Z,68.90
2022-11-13T04:28:22.236Z,68.40
2022-11-13T04:30:49.155Z,69.30
2022-11-13T04:33:15.818Z,68.70
2022-11-13T04:35:45.624Z,68.90
2022-11-13T04:38:12.927Z,69.00
2022-11-13T04:40:40.478Z,68.90
2022-11-13T04:43:07.180Z,68.10
2022-11-13T04:45:33.861Z,68.40
2022-11-13T04:48:00.749Z,68.90
2022-11-13T04:50:27.575Z,67.90
2022-11-13T04:52:55.768Z,67.80
2022-11-13T04:55:22.378Z,67.00
2022-11-13T04:57:51.519Z,67.90
2022-11-13T05:00:18.523Z,67.50
2022-11-13T05:02:45.334Z,68.20
2022-11-13T05:05:11.982Z,66.80
2022-11-13T05:07:38.672Z,66.90
2022-11-13T05:10:06.140Z,68.10
2022-11-13T05:12:32.769Z,67.70
2022-11-13T05:14:59.389Z,67.50
2022-11-13T05:17:26.016Z,67.70
2022-11-13T05:19:52.687Z,67.20
2022-11-13T05:22:19.312Z,68.10
2022-11-13T05:24:45.986Z,67.60
2022-11-13T05:27:17.063Z,66.60
2022-11-13T05:29:44.503Z,66.60
2022-11-13T05:32:11.132Z,66.80
2022-11-13T05:34:37.769Z,66.20
2022-11-13T05:37:04.406Z,65.40
2022-11-13T05:39:31.061Z,66.10
2022-11-13T05:41:57.698Z,65.40
2022-11-13T05:44:24.325Z,64.70
2022-11-13T05:46:50.958Z,63.60
2022-11-13T05:49:17.664Z,63.80
2022-11-13T05:51:44.326Z,63.90
2022-11-13T05:54:11.411Z,63.50
2022-11-13T05:56:38.364Z,63.70
2022-11-13T05:59:05.468Z,62.60
2022-11-13T06:01:39.997Z,61.80
2022-11-13T06:04:07.835Z,61.50
2022-11-13T06:06:34.633Z,61.10
2022-11-13T06:09:02.742Z,60.70
2022-11-13T06:11:30.805Z,60.70
2022-11-13T06:13:58.593Z,61.00
2022-11-13T06:16:33.420Z,61.50
2022-11-13T06:19:02.018Z,61.20
2022-11-13T06:21:33.478Z,60.70
2022-11-13T06:24:01.470Z,61.00
2022-11-13T06:26:33.385Z,60.80
2022-11-13T06:29:01.472Z,59.10
2022-11-13T06:31:30.549Z,60.10
2022-11-13T06:33:59.177Z,59.40
2022-11-13T06:36:31.131Z,60.20
2022-11-13T06:38:58.092Z,60.40
2022-11-13T06:41:27.047Z,59.90
2022-11-13T06:43:54.980Z,60.00
2022-11-13T06:46:28.026Z,60.40
2022-11-13T06:48:54.799Z,60.60
2022-11-13T06:51:26.929Z,59.60
2022-11-13T06:53:53.700Z,60.30
2022-11-13T06:56:20.662Z,61.20
2022-11-13T06:58:47.441Z,60.80
2022-11-13T07:01:16.789Z,60.90
2022-11-13T07:03:43.710Z,60.40
2022-11-13T07:06:16.058Z,60.50
2022-11-13T07:08:43.559Z,60.40
2022-11-13T07:11:12.457Z,60.60
2022-11-13T07:13:39.302Z,61.10
2022-11-13T07:16:16.220Z,60.90
2022-11-13T07:18:44.026Z,61.50
2022-11-13T07:21:12.417Z,61.80
2022-11-13T07:23:43.457Z,61.50
2022-11-13T07:26:11.311Z,61.80
2022-11-13T07:28:38.250Z,62.70
2022-11-13T07:31:05.487Z,62.60
2022-11-13T07:33:32.176Z,61.60
2022-11-13T07:35:59.219Z,62.00
2022-11-13T07:38:26.128Z,62.70
2022-11-13T07:40:53.822Z,62.20
2022-11-13T07:43:20.583Z,62.20
2022-11-13T07:45:47.409Z,62.30
2022-11-13T07:48:14.129Z,61.70
2022-11-13T07:50:40.808Z,63.10
2022-11-13T07:53:08.755Z,63.30
2022-11-13T07:55:36.113Z,62.50
2022-11-13T07:58:03.654Z,62.00
2022-11-13T08:00:32.986Z,61.90
2022-11-13T08:03:05.369Z,63.10
2022-11-13T08:05:32.045Z,62.80
2022-11-13T08:07:58.678Z,63.30
2022-11-13T08:10:25.321Z,62.70
2022-11-13T08:13:01.694Z,63.80
2022-11-13T08:15:29.614Z,65.50
2022-11-13T08:17:57.557Z,65.30
2022-11-13T08:20:24.900Z,65.60
2022-11-13T08:22:51.978Z,66.00
2022-11-13T08:25:19.026Z,64.80
2022-11-13T08:27:45.916Z,64.20
2022-11-13T08:30:13.543Z,64.40
2022-11-13T08:32:40.235Z,63.00
2022-11-13T08:35:07.186Z,63.70
2022-11-13T08:37:34.160Z,62.90
2022-11-13T08:40:03.977Z,62.20
2022-11-13T08:42:30.602Z,64.50
2022-11-13T08:44:57.253Z,63.80
2022-11-13T08:47:29.157Z,64.70
2022-11-13T08:49:56.575Z,64.40
2022-11-13T08:52:23.424Z,66.50
2022-11-13T08:54:50.157Z,65.60
2022-11-13T08:57:16.896Z,65.60
2022-11-13T08:59:43.528Z,64.60
2022-11-13T09:02:14.817Z,64.00
2022-11-13T09:04:42.377Z,65.60
2022-11-13T09:07:09.419Z,65.60
2022-11-13T09:09:36.173Z,65.40
2022-11-13T09:12:02.843Z,65.90
2022-11-13T09:14:30.580Z,66.80
2022-11-13T09:16:57.623Z,64.80
2022-11-13T09:19:25.583Z,65.60
2022-11-13T09:21:52.551Z,64.60
2022-11-13T09:24:19.499Z,66.00
2022-11-13T09:26:46.151Z,67.00
2022-11-13T09:29:12.781Z,65.40
2022-11-13T09:31:41.153Z,66.90
2022-11-13T09:34:08.847Z,68.30
2022-11-13T09:36:35.632Z,68.80
2022-11-13T09:39:02.655Z,69.60
2022-11-13T09:41:33.510Z,68.90
2022-11-13T09:44:03.353Z,69.40
2022-11-13T09:46:32.826Z,70.30
2022-11-13T09:49:06.584Z,70.70
2022-11-13T09:51:36.429Z,70.90
2022-11-13T09:54:06.150Z,71.80
2022-11-13T09:56:58.479Z,71.50
2022-11-13T09:59:32.524Z,71.50
2022-11-13T10:02:01.930Z,72.30
2022-11-13T10:04:43.149Z,70.30
2022-11-13T10:07:35.686Z,71.60
2022-11-13T10:10:16.234Z,70.70
2022-11-13T10:12:45.712Z,71.40
2022-11-13T10:15:12.511Z,69.60
2022-11-13T10:17:39.965Z,69.40
2022-11-13T10:20:22.624Z,72.20
2022-11-13T10:23:25.179Z,71.00
2022-11-13T10:25:52.543Z,69.60
2022-11-13T10:31:13.587Z,72.00
2022-11-13T10:33:40.422Z,71.90
2022-11-13T10:36:10.154Z,70.90
2022-11-13T10:38:44.567Z,69.20
2022-11-13T10:41:19.313Z,71.50
2022-11-13T10:44:02.827Z,68.50
2022-11-13T10:46:30.661Z,70.00
2022-11-13T10:48:58.627Z,71.70
2022-11-13T10:51:30.493Z,70.00
2022-11-13T10:53:59.185Z,70.00
2022-11-13T10:56:33.779Z,71.10
2022-11-13T10:59:13.478Z,68.40
2022-11-13T11:01:43.157Z,70.00
2022-11-13T11:04:22.152Z,66.70
2022-11-13T11:07:19.172Z,68.80
2022-11-13T11:09:38.481Z,69.70
2022-11-13T11:12:17.298Z,70.80
2022-11-13T11:14:50.309Z,70.90
2022-11-13T11:17:19.436Z,72.00
2022-11-13T11:19:52.535Z,71.90
2022-11-13T11:22:23.145Z,74.20
2022-11-13T11:24:55.745Z,73.50
2022-11-13T11:27:34.020Z,73.20
2022-11-13T11:30:16.286Z,76.10
2022-11-13T11:32:48.355Z,75.50
2022-11-13T11:35:19.545Z,78.00
2022-11-13T11:37:54.416Z,76.50
2022-11-13T11:40:29.484Z,76.30
2022-11-13T11:43:12.844Z,76.80
2022-11-13T11:45:44.890Z,76.20
2022-11-13T11:48:17.650Z,78.80
2022-11-13T11:50:48.853Z,79.60
2022-11-13T11:53:34.442Z,81.70
2022-11-13T11:56:16.306Z,82.30
2022-11-13T11:59:04.386Z,80.40
2022-11-13T12:01:34.038Z,80.60
2022-11-13T12:04:44.957Z,78.00
2022-11-13T12:07:20.737Z,76.70
2022-11-13T12:09:56.628Z,77.00
2022-11-13T12:12:46.415Z,75.70
2022-11-13T12:15:28.714Z,76.70
2022-11-13T12:18:38.272Z,75.00
2022-11-13T12:21:16.449Z,76.50
2022-11-13T12:23:50.235Z,74.90
2022-11-13T12:26:50.767Z,75.60
2022-11-13T12:29:59.100Z,73.60
2022-11-13T12:32:37.498Z,76.70
2022-11-13T12:35:19.426Z,77.30
2022-11-13T12:38:08.765Z,76.60
2022-11-13T12:40:44.972Z,76.80
2022-11-13T12:43:46.239Z,78.80
2022-11-13T12:48:50.613Z,72.40
2022-11-13T12:51:18.735Z,72.30
2022-11-13T12:53:45.389Z,70.20
2022-11-13T12:56:24.116Z,70.80
2022-11-13T12:59:30.389Z,70.50
2022-11-13T13:02:07.314Z,67.50
2022-11-13T13:05:07.456Z,66.20
2022-11-13T13:07:44.191Z,65.00
2022-11-13T13:10:10.836Z,64.30
2022-11-13T13:13:23.733Z,65.60
2022-11-13T13:16:11.832Z,64.40
2022-11-13T13:18:39.952Z,63.10
2022-11-13T13:21:08.620Z,62.40
2022-11-13T13:23:38.578Z,62.70
2022-11-13T13:26:17.752Z,58.50
2022-11-13T13:28:50.182Z,57.40
2022-11-13T13:31:45.045Z,53.60
2022-11-13T13:34:39.704Z,46.70
2022-11-13T13:37:39.661Z,45.40
2022-11-13T13:41:00.473Z,41.40
2022-11-13T13:43:40.474Z,40.40
2022-11-13T13:46:10.186Z,40.10
2022-11-13T13:48:42.457Z,37.40
2022-11-13T13:51:26.550Z,36.70
2022-11-13T13:53:56.700Z,38.50
2022-11-13T13:56:24.217Z,34.70
2022-11-13T13:58:51.469Z,37.20
2022-11-13T14:01:37.149Z,34.20
2022-11-13T14:04:05.948Z,36.10
2022-11-13T14:06:33.063Z,33.00
2022-11-13T14:09:21.529Z,35.50
2022-11-13T14:11:48.545Z,33.10
2022-11-13T14:14:20.859Z,35.00
2022-11-13T14:16:49.268Z,33.80
2022-11-13T14:19:17.404Z,34.30
2022-11-13T14:21:45.609Z,34.60
2022-11-13T14:24:23.295Z,35.80
2022-11-13T14:26:52.319Z,37.90
2022-11-13T14:29:39.512Z,36.30
2022-11-13T14:32:11.417Z,36.70
2022-11-13T14:34:38.319Z,35.30
2022-11-13T14:37:35.593Z,35.30
2022-11-13T14:40:06.117Z,36.00
2022-11-13T14:42:38.966Z,37.00
2022-11-13T14:45:41.221Z,39.30
2022-11-13T14:48:18.992Z,38.00
2022-11-13T14:50:53.228Z,40.70
2022-11-13T14:53:32.848Z,43.20
2022-11-13T14:56:09.536Z,44.80
2022-11-13T14:58:43.890Z,44.60
2022-11-13T15:01:24.623Z,47.20
2022-11-13T15:03:52.646Z,46.70
2022-11-13T15:06:27.436Z,47.80
2022-11-13T15:08:58.415Z,48.10
2022-11-13T15:11:28.648Z,49.10
2022-11-13T15:14:03.024Z,56.60
2022-11-13T15:16:31.452Z,47.70
2022-11-13T15:19:20.019Z,46.70
2022-11-13T15:22:05.462Z,44.30
2022-11-13T15:24:29.962Z,38.50
2022-11-13T15:26:56.678Z,39.80
2022-11-13T15:29:23.389Z,42.00
2022-11-13T15:31:50.151Z,43.10
2022-11-13T15:34:17.003Z,39.70
2022-11-13T15:36:45.791Z,38.90
2022-11-13T15:39:23.086Z,41.50
2022-11-13T15:41:50.751Z,40.20
2022-11-13T15:44:17.570Z,38.40
2022-11-13T15:46:44.248Z,40.30
2022-11-13T15:49:10.927Z,39.10
2022-11-13T15:51:41.420Z,39.50
2022-11-13T15:54:20.551Z,38.10
2022-11-13T15:56:49.745Z,47.60
2022-11-13T15:59:16.654Z,40.30
2022-11-13T16:01:43.718Z,40.10
2022-11-13T16:04:13.052Z,38.20
2022-11-13T16:06:40.685Z,37.00
2022-11-13T16:09:14.025Z,37.50
2022-11-13T16:11:41.373Z,37.30
2022-11-13T16:14:08.942Z,39.10
2022-11-13T16:16:38.071Z,39.40
2022-11-13T16:19:14.383Z,39.60
2022-11-13T16:21:41.227Z,46.70
2022-11-13T16:24:11.184Z,45.40
2022-11-13T16:26:38.626Z,61.70
2022-11-13T16:29:23.975Z,58.20
2022-11-13T16:31:50.891Z,56.60
2022-11-13T16:34:17.599Z,52.80
2022-11-13T16:36:44.728Z,49.00
2022-11-13T16:39:16.402Z,49.80
2022-11-13T16:41:43.220Z,50.10
2022-11-13T16:44:09.949Z,50.60
2022-11-13T16:46:39.432Z,50.90
2022-11-13T16:49:06.130Z,50.20
2022-11-13T16:51:32.797Z,50.70
2022-11-13T16:53:59.474Z,51.00
2022-11-13T16:56:29.073Z,52.60
2022-11-13T16:58:59.081Z,56.40
2022-11-13T17:01:26.568Z,57.30
2022-11-13T17:03:53.443Z,58.40
2022-11-13T17:06:28.314Z,59.00
2022-11-13T17:08:57.376Z,60.00
2022-11-13T17:11:25.749Z,59.10
2022-11-13T17:14:00.314Z,60.60
2022-11-13T17:16:28.306Z,61.80
2022-11-13T17:18:56.012Z,61.20
2022-11-13T17:21:24.624Z,59.60
2022-11-13T17:23:58.747Z,61.80
2022-11-13T17:26:26.007Z,60.10
2022-11-13T17:28:53.249Z,61.20
2022-11-13T17:31:20.762Z,61.40
2022-11-13T17:33:47.981Z,62.30
2022-11-13T17:36:14.798Z,62.50
2022-11-13T17:38:41.634Z,62.30
2022-11-13T17:41:10.958Z,60.90
2022-11-13T17:43:38.879Z,60.70
2022-11-13T17:46:06.574Z,60.40
2022-11-13T17:48:34.182Z,60.40
2022-11-13T17:51:07.210Z,59.60
2022-11-13T17:53:36.804Z,61.00
2022-11-13T17:56:07.170Z,60.70
2022-11-13T17:58:42.144Z,61.90
2022-11-13T18:01:12.983Z,60.90
2022-11-13T18:03:39.954Z,63.50
2022-11-13T18:06:09.462Z,62.00
2022-11-13T18:08:38.703Z,62.80
2022-11-13T18:11:17.467Z,64.10
2022-11-13T18:13:44.884Z,63.50
2022-11-13T18:16:19.079Z,62.60
2022-11-13T18:18:55.159Z,62.80
2022-11-13T18:21:26.174Z,62.30
2022-11-13T18:24:08.058Z,62.90
2022-11-13T18:26:34.886Z,62.90
2022-11-13T18:29:02.201Z,63.30
2022-11-13T18:31:29.597Z,64.40
2022-11-13T18:33:59.084Z,62.00
2022-11-13T18:36:26.170Z,62.50
2022-11-13T18:38:52.871Z,61.70
2022-11-13T18:41:21.261Z,62.40
2022-11-13T18:43:49.967Z,63.40
2022-11-13T18:46:19.140Z,62.70
2022-11-13T18:48:47.076Z,64.10
2022-11-13T18:51:15.546Z,63.70
2022-11-13T18:53:43.797Z,63.00
2022-11-13T18:56:14.111Z,62.50
2022-11-13T18:58:42.179Z,59.50
2022-11-13T19:01:10.261Z,60.30
2022-11-13T19:03:38.136Z,62.20
2022-11-13T19:06:09.386Z,62.90
2022-11-13T19:08:40.744Z,60.10
2022-11-13T19:11:10.758Z,61.60
2022-11-13T19:13:38.687Z,62.50
2022-11-13T19:16:07.337Z,61.40
2022-11-13T19:18:34.378Z,62.00
2022-11-13T19:21:09.811Z,61.70
2022-11-13T19:23:36.823Z,61.80
2022-11-13T19:26:04.617Z,62.50
2022-11-13T19:28:31.752Z,62.80
2022-11-13T19:30:58.599Z,62.80
2022-11-13T19:33:26.424Z,60.40
2022-11-13T19:35:54.928Z,61.20
2022-11-13T19:38:22.349Z,59.40
2022-11-13T19:40:51.560Z,60.50
2022-11-13T19:43:18.647Z,59.20
2022-11-13T19:45:45.522Z,58.30
2022-11-13T19:48:17.553Z,57.70
2022-11-13T19:50:47.305Z,59.00
2022-11-13T19:53:16.851Z,57.50
2022-11-13T19:55:43.601Z,57.90
2022-11-13T19:58:10.346Z,57.80
2022-11-13T20:00:37.125Z,56.70
2022-11-13T20:03:07.679Z,57.80
2022-11-13T20:05:34.648Z,58.30
2022-11-13T20:08:01.433Z,59.40
2022-11-13T20:10:28.133Z,60.50
2022-11-13T20:12:54.881Z,61.30
2022-11-13T20:15:21.586Z,63.20
2022-11-13T20:17:48.304Z,59.90
2022-11-13T20:20:15.327Z,62.80
2022-11-13T20:22:42.183Z,63.00
2022-11-13T20:25:09.361Z,61.50
2022-11-13T20:27:37.479Z,62.50
2022-11-13T20:30:04.912Z,64.10
2022-11-13T20:32:31.554Z,64.30
2022-11-13T20:34:58.286Z,65.00
2022-11-13T20:37:25.014Z,62.30
2022-11-13T20:39:52.027Z,63.00
2022-11-13T20:42:18.722Z,61.70
2022-11-13T20:44:45.445Z,63.10
2022-11-13T20:47:12.285Z,63.10
2022-11-13T20:49:39.213Z,63.30
2022-11-13T20:52:08.237Z,64.20
2022-11-13T20:54:36.463Z,64.00
2022-11-13T20:57:03.318Z,62.70
2022-11-13T20:59:30.293Z,62.30
2022-11-13T21:01:57.095Z,63.00
2022-11-13T21:04:23.754Z,62.80
2022-11-13T21:06:52.444Z,62.10
2022-11-13T21:09:19.325Z,62.20
2022-11-13T21:11:46.101Z,63.40
2022-11-13T21:14:12.783Z,62.90
2022-11-13T21:16:39.563Z,62.90
2022-11-13T21:19:06.560Z,61.10
2022-11-13T21:21:33.276Z,63.50
2022-11-13T21:24:00.108Z,61.60
2022-11-13T21:26:28.339Z,60.60
2022-11-13T21:29:00.118Z,61.10
2022-11-13T21:31:27.098Z,60.80
2022-11-13T21:33:57.809Z,62.70
2022-11-13T21:36:26.959Z,60.60
2022-11-13T21:38:54.742Z,61.70
2022-11-13T21:41:22.795Z,58.60
2022-11-13T21:43:56.830Z,59.30
2022-11-13T21:46:25.234Z,59.50
2022-11-13T21:49:05.879Z,61.10
2022-11-13T21:51:33.727Z,60.50
2022-11-13T21:54:00.943Z,59.00
2022-11-13T21:56:29.114Z,58.00
2022-11-13T21:58:56.240Z,59.90
2022-11-13T22:01:24.180Z,58.90
2022-11-13T22:03:51.063Z,56.60
2022-11-13T22:06:19.226Z,56.30
2022-11-13T22:08:55.851Z,56.00
2022-11-13T22:11:23.874Z,57.00
2022-11-13T22:13:50.737Z,56.20
2022-11-13T22:16:17.744Z,58.70
2022-11-13T22:18:44.915Z,57.40
2022-11-13T22:21:13.697Z,59.60
2022-11-13T22:23:40.983Z,59.30
2022-11-13T22:26:17.850Z,59.10
2022-11-13T22:28:45.832Z,59.40
2022-11-13T22:31:21.904Z,58.80
2022-11-13T22:33:51.477Z,60.70
2022-11-13T22:36:23.294Z,60.20
2022-11-13T22:38:52.147Z,59.90
2022-11-13T22:41:28.341Z,61.00
2022-11-13T22:44:00.843Z,60.00
2022-11-13T22:46:29.706Z,59.50
2022-11-13T22:48:58.027Z,59.40
2022-11-13T22:51:30.615Z,58.20
2022-11-13T22:54:02.399Z,60.40
2022-11-13T22:56:31.337Z,62.90
2022-11-13T22:59:00.638Z,62.40
2022-11-13T23:01:30.024Z,61.60
2022-11-13T23:03:57.829Z,59.70
2022-11-13T23:06:26.714Z,59.70
2022-11-13T23:08:53.620Z,60.80
2022-11-13T23:11:26.468Z,59.60
2022-11-13T23:13:55.790Z,59.80
2022-11-13T23:16:23.777Z,59.70
2022-11-13T23:18:51.551Z,60.50
2022-11-13T23:21:18.906Z,60.40
2022-11-13T23:23:45.615Z,59.80
2022-11-13T23:26:13.448Z,60.30
2022-11-13T23:28:40.539Z,61.00
2022-11-13T23:31:07.906Z,60.10
2022-11-13T23:33:34.714Z,58.50
2022-11-13T23:36:01.825Z,59.40
2022-11-13T23:38:28.993Z,59.10
2022-11-13T23:40:57.056Z,61.00
2022-11-13T23:43:36.458Z,59.50
2022-11-13T23:46:11.725Z,60.10
2022-11-13T23:48:40.123Z,61.80
2022-11-13T23:51:07.470Z,61.10
2022-11-13T23:53:34.391Z,59.80
2022-11-13T23:56:01.424Z,59.70
2022-11-13T23:58:28.684Z,59.10
